createdAt,value
2022-12-20T00:01:35.726Z,11.37
2022-12-20T00:04:05.870Z,11.53
2022-12-20T00:06:36.048Z,11.43
2022-12-20T00:09:06.490Z,11.63
2022-12-20T00:11:34.005Z,11.33
2022-12-20T00:14:01.127Z,11.47
2022-12-20T00:16:29.734Z,11.63
2022-12-20T00:19:02.810Z,11.90
2022-12-20T00:21:31.462Z,12.33
2022-12-20T00:23:58.878Z,12.53
2022-12-20T00:26:29.409Z,12.40
2022-12-20T00:28:57.023Z,11.23
2022-12-20T00:31:25.599Z,12.17
2022-12-20T00:33:54.694Z,11.07
2022-12-20T00:36:23.259Z,13.20
2022-12-20T00:38:52.565Z,13.03
2022-12-20T00:41:22.023Z,12.80
2022-12-20T00:43:49.569Z,13.57
2022-12-20T00:46:18.653Z,12.67
2022-12-20T00:48:46.123Z,13.50
2022-12-20T00:51:16.468Z,13.53
2022-12-20T00:53:44.181Z,14.57
2022-12-20T00:56:12.351Z,12.30
2022-12-20T00:58:41.447Z,12.57
2022-12-20T01:01:21.600Z,13.43
2022-12-20T01:03:49.954Z,12.83
2022-12-20T01:06:18.605Z,12.53
2022-12-20T01:08:46.235Z,12.40
2022-12-20T01:11:19.365Z,13.00
2022-12-20T01:13:49.506Z,12.93
2022-12-20T01:16:27.029Z,12.07
2022-12-20T01:18:55.352Z,12.10
2022-12-20T01:21:24.409Z,13.20
2022-12-20T01:23:52.096Z,12.27
2022-12-20T01:26:22.451Z,12.90
2022-12-20T01:28:52.347Z,12.37
2022-12-20T01:31:20.851Z,12.00
2022-12-20T01:33:49.195Z,12.00
2022-12-20T01:36:20.514Z,11.67
2022-12-20T01:38:48.139Z,11.20
2022-12-20T01:41:21.264Z,11.87
2022-12-20T01:44:04.138Z,12.83
2022-12-20T01:46:33.931Z,12.27
2022-12-20T01:49:21.271Z,12.63
2022-12-20T01:52:00.465Z,12.30
2022-12-20T01:54:36.224Z,13.17
2022-12-20T01:57:08.585Z,12.57
2022-12-20T01:59:40.390Z,12.60
2022-12-20T02:02:11.339Z,12.33
2022-12-20T02:04:39.034Z,13.03
2022-12-20T02:07:08.645Z,13.00
2022-12-20T02:09:38.185Z,14.10
2022-12-20T02:12:12.810Z,13.10
2022-12-20T02:14:42.997Z,13.27
2022-12-20T02:17:12.823Z,13.60
2022-12-20T02:20:25.227Z,13.87
2022-12-20T02:22:52.286Z,12.80
2022-12-20T02:25:19.490Z,13.13
2022-12-20T02:27:54.632Z,14.63
2022-12-20T02:30:24.207Z,13.50
2022-12-20T02:33:03.377Z,14.23
2022-12-20T02:35:34.100Z,15.17
2022-12-20T02:38:05.139Z,13.37
2022-12-20T02:40:41.378Z,15.37
2022-12-20T02:43:29.936Z,14.43
2022-12-20T02:46:00.556Z,16.00
2022-12-20T02:48:32.089Z,14.00
2022-12-20T02:51:00.428Z,14.67
2022-12-20T02:53:29.449Z,13.53
2022-12-20T02:56:10.852Z,15.57
2022-12-20T02:58:48.973Z,16.80
2022-12-20T03:01:36.415Z,15.43
2022-12-20T03:04:05.016Z,19.00
2022-12-20T03:06:32.154Z,14.10
2022-12-20T03:08:59.561Z,20.67
2022-12-20T03:11:26.657Z,15.00
2022-12-20T03:13:54.014Z,13.03
2022-12-20T03:16:21.335Z,14.83
2022-12-20T03:18:48.686Z,14.47
2022-12-20T03:21:15.793Z,13.07
2022-12-20T03:23:42.918Z,15.50
2022-12-20T03:26:10.035Z,12.83
2022-12-20T03:28:37.125Z,12.33
2022-12-20T03:31:04.373Z,11.57
2022-12-20T03:33:31.503Z,12.13
2022-12-20T03:35:58.663Z,11.67
2022-12-20T03:38:25.761Z,12.90
2022-12-20T03:40:52.968Z,12.60
2022-12-20T03:43:20.120Z,12.90
2022-12-20T03:45:47.241Z,11.77
2022-12-20T03:48:14.320Z,13.30
2022-12-20T03:50:41.554Z,11.90
2022-12-20T03:53:08.930Z,12.37
2022-12-20T03:55:36.123Z,12.93
2022-12-20T03:58:03.486Z,13.83
2022-12-20T04:00:30.690Z,14.93
2022-12-20T04:02:58.468Z,15.57
2022-12-20T04:05:25.583Z,14.87
2022-12-20T04:07:52.727Z,14.43
2022-12-20T04:10:19.954Z,13.97
2022-12-20T04:12:47.087Z,14.10
2022-12-20T04:15:14.445Z,13.10
2022-12-20T04:17:41.516Z,13.77
2022-12-20T04:20:19.499Z,13.40
2022-12-20T04:22:51.672Z,14.43
2022-12-20T04:25:20.668Z,16.83
2022-12-20T04:27:47.832Z,14.10
2022-12-20T04:30:15.322Z,14.90
2022-12-20T04:32:42.449Z,18.67
2022-12-20T04:35:10.368Z,15.97
2022-12-20T04:37:37.650Z,15.97
2022-12-20T04:40:05.693Z,14.97
2022-12-20T04:42:32.815Z,14.20
2022-12-20T04:44:59.944Z,14.80
2022-12-20T04:47:27.062Z,15.40
2022-12-20T04:49:54.209Z,13.87
2022-12-20T04:52:47.170Z,15.60
2022-12-20T04:55:15.062Z,14.80
2022-12-20T04:57:42.277Z,16.83
2022-12-20T05:00:09.840Z,15.17
2022-12-20T05:02:37.101Z,16.83
2022-12-20T05:05:04.688Z,14.20
2022-12-20T05:07:31.775Z,14.80
2022-12-20T05:09:58.892Z,15.00
2022-12-20T05:12:26.014Z,15.47
2022-12-20T05:14:53.119Z,15.27
2022-12-20T05:17:20.376Z,15.37
2022-12-20T05:19:47.545Z,16.63
2022-12-20T05:22:32.952Z,16.87
2022-12-20T05:25:18.659Z,14.70
2022-12-20T05:27:45.748Z,16.73
2022-12-20T05:30:13.188Z,17.20
2022-12-20T05:32:40.299Z,16.40
2022-12-20T05:35:08.095Z,16.07
2022-12-20T05:37:35.528Z,15.70
2022-12-20T05:40:02.764Z,15.60
2022-12-20T05:42:29.902Z,17.27
2022-12-20T05:44:57.075Z,15.53
2022-12-20T05:47:24.989Z,15.70
2022-12-20T05:49:52.061Z,16.40
2022-12-20T05:52:19.168Z,16.03
2022-12-20T05:54:46.248Z,15.80
2022-12-20T05:57:14.811Z,15.90
2022-12-20T05:59:42.601Z,16.03
2022-12-20T06:02:10.938Z,15.37
2022-12-20T06:04:38.908Z,15.50
2022-12-20T06:07:06.189Z,16.00
2022-12-20T06:09:33.930Z,17.33
2022-12-20T06:12:01.443Z,14.80
2022-12-20T06:14:28.492Z,16.13
2022-12-20T06:16:55.853Z,15.67
2022-12-20T06:19:23.072Z,15.97
2022-12-20T06:21:50.459Z,15.10
2022-12-20T06:24:17.555Z,15.13
2022-12-20T06:26:44.851Z,15.17
2022-12-20T06:29:14.308Z,14.17
2022-12-20T06:31:41.910Z,14.83
2022-12-20T06:34:09.101Z,15.63
2022-12-20T06:36:36.246Z,14.53
2022-12-20T06:39:09.455Z,14.17
2022-12-20T06:41:37.443Z,14.43
2022-12-20T06:44:04.730Z,13.73
2022-12-20T06:46:31.949Z,14.20
2022-12-20T06:48:59.485Z,13.47
2022-12-20T06:51:26.777Z,13.07
2022-12-20T06:53:53.894Z,11.97
2022-12-20T06:56:21.028Z,12.70
2022-12-20T06:58:48.208Z,13.13
2022-12-20T07:01:15.385Z,12.70
2022-12-20T07:03:42.754Z,11.57
2022-12-20T07:06:09.931Z,11.73
2022-12-20T07:08:37.133Z,12.37
2022-12-20T07:11:08.389Z,11.53
2022-12-20T07:13:35.670Z,10.70
2022-12-20T07:16:04.127Z,11.47
2022-12-20T07:18:31.478Z,11.87
2022-12-20T07:21:05.948Z,11.00
2022-12-20T07:23:33.783Z,12.13
2022-12-20T07:26:01.730Z,10.87
2022-12-20T07:28:29.188Z,11.13
2022-12-20T07:31:01.743Z,11.70
2022-12-20T07:33:29.585Z,10.53
2022-12-20T07:36:05.233Z,11.33
2022-12-20T07:38:32.712Z,11.07
2022-12-20T07:40:59.957Z,10.37
2022-12-20T07:43:27.288Z,10.57
2022-12-20T07:45:56.400Z,10.03
2022-12-20T07:48:24.617Z,10.60
2022-12-20T07:51:07.024Z,10.77
2022-12-20T07:53:38.666Z,10.00
2022-12-20T07:56:07.977Z,10.27
2022-12-20T07:58:37.131Z,10.40
2022-12-20T08:01:04.988Z,10.77
2022-12-20T08:03:39.721Z,9.63
2022-12-20T08:06:08.601Z,9.10
2022-12-20T08:08:40.256Z,9.43
2022-12-20T08:11:09.035Z,9.23
2022-12-20T08:13:40.952Z,10.27
2022-12-20T08:16:13.250Z,9.53
2022-12-20T08:18:40.431Z,10.00
2022-12-20T08:21:07.783Z,10.57
2022-12-20T08:23:35.132Z,9.70
2022-12-20T08:26:02.754Z,9.37
2022-12-20T08:28:29.855Z,10.13
2022-12-20T08:31:05.099Z,9.47
2022-12-20T08:33:35.063Z,10.20
2022-12-20T08:36:05.386Z,9.93
2022-12-20T08:38:33.212Z,9.70
2022-12-20T08:41:08.930Z,10.80
2022-12-20T08:43:36.488Z,10.93
2022-12-20T08:46:04.318Z,11.23
2022-12-20T08:48:32.645Z,10.67
2022-12-20T08:51:02.364Z,11.53
2022-12-20T08:53:30.782Z,12.27
2022-12-20T08:56:24.561Z,13.03
2022-12-20T08:58:51.768Z,12.43
2022-12-20T09:01:21.914Z,12.80
2022-12-20T09:03:49.962Z,11.80
2022-12-20T09:06:20.260Z,11.33
2022-12-20T09:08:48.443Z,11.33
2022-12-20T09:11:18.768Z,11.43
2022-12-20T09:13:47.747Z,11.23
2022-12-20T09:16:16.952Z,11.07
2022-12-20T09:18:44.465Z,11.27
2022-12-20T09:21:12.530Z,11.43
2022-12-20T09:23:39.839Z,10.90
2022-12-20T09:26:11.004Z,10.83
2022-12-20T09:28:38.245Z,10.50
2022-12-20T09:31:08.621Z,10.60
2022-12-20T09:33:36.652Z,10.87
2022-12-20T09:36:04.848Z,10.70
2022-12-20T09:38:32.312Z,10.20
2022-12-20T09:41:03.639Z,10.03
2022-12-20T09:43:32.220Z,10.87
2022-12-20T09:46:02.606Z,10.07
2022-12-20T09:48:35.513Z,10.07
2022-12-20T09:51:46.791Z,11.17
2022-12-20T09:54:20.178Z,10.00
2022-12-20T09:57:13.443Z,10.40
2022-12-20T09:59:49.237Z,10.17
2022-12-20T10:05:18.015Z,11.10
2022-12-20T10:08:15.693Z,10.73
2022-12-20T10:10:54.210Z,11.50
2022-12-20T10:13:58.934Z,10.37
2022-12-20T10:16:43.884Z,10.13
2022-12-20T10:19:28.476Z,10.43
2022-12-20T10:22:17.721Z,12.03
2022-12-20T10:25:14.115Z,11.17
2022-12-20T10:27:43.589Z,10.93
2022-12-20T10:30:19.946Z,13.20
2022-12-20T10:32:50.036Z,10.67
2022-12-20T10:35:23.847Z,11.30
2022-12-20T10:38:08.652Z,11.07
2022-12-20T10:41:21.222Z,11.70
2022-12-20T10:43:54.774Z,11.10
2022-12-20T10:46:22.256Z,11.60
2022-12-20T10:48:50.983Z,11.50
2022-12-20T10:51:22.797Z,11.30
2022-12-20T10:54:03.303Z,11.63
2022-12-20T10:56:36.589Z,12.00
2022-12-20T10:59:24.055Z,12.30
2022-12-20T11:01:51.540Z,12.83
2022-12-20T11:04:29.515Z,12.37
2022-12-20T11:06:57.673Z,11.20
2022-12-20T11:09:38.885Z,11.17
2022-12-20T11:12:13.617Z,11.47
2022-12-20T11:14:43.234Z,11.00
2022-12-20T11:17:34.548Z,10.60
2022-12-20T11:20:21.909Z,9.77
2022-12-20T11:23:16.449Z,10.30
2022-12-20T11:26:28.115Z,10.23
2022-12-20T11:29:05.658Z,9.70
2022-12-20T11:31:51.715Z,9.43
2022-12-20T11:34:18.937Z,8.87
2022-12-20T11:37:16.469Z,8.53
2022-12-20T11:40:08.086Z,8.13
2022-12-20T11:43:04.876Z,8.90
2022-12-20T11:45:59.001Z,9.23
2022-12-20T11:48:50.996Z,8.63
2022-12-20T11:51:57.248Z,8.37
2022-12-20T11:54:30.000Z,8.60
2022-12-20T11:57:04.606Z,9.37
2022-12-20T11:59:57.789Z,8.47
2022-12-20T12:02:46.009Z,8.50
2022-12-20T12:05:43.002Z,8.67
2022-12-20T12:08:19.183Z,8.80
2022-12-20T12:10:59.590Z,8.47
2022-12-20T12:13:34.427Z,8.60
2022-12-20T12:16:33.779Z,8.30
2022-12-20T12:19:02.419Z,9.60
2022-12-20T12:21:40.653Z,10.07
2022-12-20T12:24:16.387Z,9.83
2022-12-20T12:26:43.681Z,9.57
2022-12-20T12:29:14.471Z,10.13
2022-12-20T12:32:20.244Z,8.97
2022-12-20T12:34:53.247Z,11.40
2022-12-20T12:37:50.112Z,9.63
2022-12-20T12:41:03.095Z,8.77
2022-12-20T12:43:55.974Z,9.10
2022-12-20T12:46:30.478Z,24.00
2022-12-20T12:49:09.491Z,8.40
2022-12-20T12:51:41.146Z,9.57
2022-12-20T12:54:28.701Z,10.10
2022-12-20T12:57:14.236Z,9.93
2022-12-20T12:59:51.998Z,10.73
2022-12-20T13:02:21.173Z,10.77
2022-12-20T13:05:06.950Z,11.67
2022-12-20T13:07:33.968Z,10.67
2022-12-20T13:10:10.445Z,25.50
2022-12-20T13:12:40.704Z,10.00
2022-12-20T13:15:20.238Z,9.90
2022-12-20T13:18:22.711Z,13.53
2022-12-20T13:21:38.169Z,9.33
2022-12-20T13:24:36.077Z,18.67
2022-12-20T13:27:14.461Z,12.07
2022-12-20T13:30:07.407Z,9.70
2022-12-20T13:32:57.149Z,22.00
2022-12-20T13:35:28.057Z,10.60
2022-12-20T13:38:32.301Z,12.77
2022-12-20T13:41:01.031Z,9.40
2022-12-20T13:43:44.681Z,9.97
2022-12-20T13:46:11.858Z,12.73
2022-12-20T13:48:48.013Z,15.57
2022-12-20T13:51:19.330Z,17.47
2022-12-20T13:54:05.716Z,8.53
2022-12-20T13:56:51.700Z,9.03
2022-12-20T13:59:36.987Z,11.30
2022-12-20T14:02:14.574Z,9.07
2022-12-20T14:04:46.724Z,11.27
2022-12-20T14:07:18.296Z,9.33
2022-12-20T14:09:47.767Z,34.40
2022-12-20T14:12:25.276Z,8.30
2022-12-20T14:14:54.554Z,9.27
2022-12-20T14:17:30.240Z,9.10
2022-12-20T14:20:15.731Z,9.70
2022-12-20T14:23:05.375Z,9.97
2022-12-20T14:25:48.162Z,10.10
2022-12-20T14:28:30.595Z,10.40
2022-12-20T14:31:00.026Z,10.07
2022-12-20T14:33:33.549Z,11.77
2022-12-20T14:36:20.402Z,10.17
2022-12-20T14:38:49.955Z,11.57
2022-12-20T14:41:33.884Z,18.53
2022-12-20T14:44:22.612Z,9.67
2022-12-20T14:46:52.485Z,10.50
2022-12-20T14:49:33.024Z,10.53
2022-12-20T14:52:20.979Z,11.47
2022-12-20T14:55:09.872Z,12.43
2022-12-20T14:57:37.742Z,11.00
2022-12-20T15:00:18.462Z,11.13
2022-12-20T15:03:02.193Z,10.97
2022-12-20T15:05:35.729Z,10.43
2022-12-20T15:08:34.916Z,30.97
2022-12-20T15:11:17.542Z,10.40
2022-12-20T15:13:54.619Z,10.43
2022-12-20T15:16:27.510Z,11.50
2022-12-20T15:19:06.270Z,10.70
2022-12-20T15:21:43.096Z,11.60
2022-12-20T15:24:18.761Z,88.03
2022-12-20T15:26:46.352Z,10.50
2022-12-20T15:29:25.530Z,30.63
2022-12-20T15:32:07.242Z,25.33
2022-12-20T15:34:37.138Z,10.83
2022-12-20T15:37:05.677Z,31.67
2022-12-20T15:39:33.494Z,10.90
2022-12-20T15:42:04.267Z,10.80
2022-12-20T15:44:32.554Z,20.10
2022-12-20T15:46:59.908Z,11.30
2022-12-20T15:49:32.122Z,11.87
2022-12-20T15:51:59.680Z,15.87
2022-12-20T15:54:27.776Z,12.67
2022-12-20T15:57:00.007Z,17.83
2022-12-20T16:02:24.208Z,11.90
2022-12-20T16:04:52.052Z,24.10
2022-12-20T16:07:19.490Z,36.60
2022-12-20T16:09:46.726Z,34.07
2022-12-20T16:12:17.725Z,104.03
2022-12-20T16:14:45.066Z,168.53
2022-12-20T16:17:15.782Z,58.33
2022-12-20T16:19:43.729Z,188.13
2022-12-20T16:22:22.607Z,138.77
2022-12-20T16:24:50.425Z,54.00
2022-12-20T16:27:17.705Z,91.97
2022-12-20T16:29:45.726Z,70.93
2022-12-20T16:32:22.192Z,289.57
2022-12-20T16:34:51.065Z,136.77
2022-12-20T16:37:18.297Z,129.07
2022-12-20T16:39:45.546Z,101.70
2022-12-20T16:42:17.653Z,132.57
2022-12-20T16:44:46.012Z,138.93
2022-12-20T16:47:14.743Z,211.17
2022-12-20T16:49:49.609Z,72.43
2022-12-20T16:52:20.004Z,175.07
2022-12-20T16:54:47.539Z,269.77
2022-12-20T16:57:14.826Z,206.33
2022-12-20T16:59:41.927Z,329.27
2022-12-20T17:02:29.409Z,386.03
2022-12-20T17:04:57.404Z,87.50
2022-12-20T17:07:25.205Z,313.30
2022-12-20T17:10:10.955Z,292.33
2022-12-20T17:12:38.244Z,229.13
2022-12-20T17:15:06.498Z,246.03
2022-12-20T17:17:33.624Z,143.77
2022-12-20T17:20:01.132Z,225.33
2022-12-20T17:22:28.468Z,128.80
2022-12-20T17:24:55.559Z,216.30
2022-12-20T17:27:22.687Z,362.57
2022-12-20T17:29:50.934Z,81.43
2022-12-20T17:32:23.930Z,236.00
2022-12-20T17:34:51.724Z,334.20
2022-12-20T17:37:18.856Z,225.07
2022-12-20T17:39:46.080Z,393.63
2022-12-20T17:42:13.806Z,275.40
2022-12-20T17:44:40.978Z,120.97
2022-12-20T17:47:08.410Z,145.57
2022-12-20T17:49:35.453Z,133.07
2022-12-20T17:52:02.525Z,431.13
2022-12-20T17:54:35.155Z,318.87
2022-12-20T17:57:06.366Z,333.97
2022-12-20T17:59:33.498Z,554.37
2022-12-20T18:02:00.790Z,372.77
2022-12-20T18:04:28.632Z,396.93
2022-12-20T18:06:56.759Z,413.67
2022-12-20T18:09:23.886Z,302.57
2022-12-20T18:11:51.065Z,255.40
2022-12-20T18:14:18.278Z,110.67
2022-12-20T18:16:45.406Z,296.00
2022-12-20T18:19:16.963Z,415.10
2022-12-20T18:21:45.178Z,242.60
2022-12-20T18:24:14.333Z,68.30
2022-12-20T18:26:41.746Z,164.73
2022-12-20T18:29:11.053Z,261.60
2022-12-20T18:31:39.032Z,287.30
2022-12-20T18:34:06.325Z,222.20
2022-12-20T18:36:36.526Z,407.87
2022-12-20T18:39:08.462Z,235.57
2022-12-20T18:41:35.919Z,124.80
2022-12-20T18:44:06.288Z,86.93
2022-12-20T18:46:33.913Z,108.40
2022-12-20T18:49:01.841Z,301.10
2022-12-20T18:51:31.696Z,235.77
2022-12-20T18:54:00.168Z,364.93
2022-12-20T18:56:31.055Z,156.87
2022-12-20T18:59:04.453Z,72.27
2022-12-20T19:01:35.920Z,37.10
2022-12-20T19:04:05.696Z,15.63
2022-12-20T19:06:33.463Z,268.60
2022-12-20T19:09:05.123Z,61.13
2022-12-20T19:11:32.591Z,196.67
2022-12-20T19:13:59.740Z,162.17
2022-12-20T19:16:32.057Z,78.63
2022-12-20T19:19:01.390Z,76.93
2022-12-20T19:21:32.231Z,117.10
2022-12-20T19:24:05.283Z,48.83
2022-12-20T19:26:33.340Z,102.70
2022-12-20T19:29:00.575Z,186.13
2022-12-20T19:31:30.483Z,39.37
2022-12-20T19:34:03.604Z,88.73
2022-12-20T19:36:35.917Z,18.37
2022-12-20T19:39:05.357Z,30.00
2022-12-20T19:41:34.267Z,181.33
2022-12-20T19:44:01.647Z,247.90
2022-12-20T19:46:30.126Z,197.90
2022-12-20T19:48:59.307Z,145.30
2022-12-20T19:51:28.423Z,269.50
2022-12-20T19:53:57.404Z,71.30
2022-12-20T19:56:30.395Z,62.03
2022-12-20T19:58:57.796Z,10.73
2022-12-20T20:01:27.703Z,44.73
2022-12-20T20:03:57.091Z,53.97
2022-12-20T20:06:25.455Z,133.03
2022-12-20T20:08:52.786Z,192.20
2022-12-20T20:11:21.156Z,33.30
2022-12-20T20:13:48.584Z,58.63
2022-12-20T20:16:21.955Z,180.23
2022-12-20T20:18:50.721Z,112.93
2022-12-20T20:21:22.994Z,81.80
2022-12-20T20:23:51.826Z,30.87
2022-12-20T20:26:22.895Z,59.67
2022-12-20T20:28:50.452Z,75.67
2022-12-20T20:31:19.743Z,156.83
2022-12-20T20:33:46.987Z,70.83
2022-12-20T20:36:16.730Z,19.10
2022-12-20T20:38:44.018Z,27.97
2022-12-20T20:41:11.651Z,83.63
2022-12-20T20:43:39.453Z,12.10
2022-12-20T20:46:09.589Z,34.53
2022-12-20T20:48:37.502Z,50.90
2022-12-20T20:51:05.652Z,225.53
2022-12-20T20:53:34.395Z,7.07
2022-12-20T20:56:03.232Z,9.70
2022-12-20T20:58:30.787Z,22.67
2022-12-20T21:01:00.177Z,15.60
2022-12-20T21:03:29.274Z,8.00
2022-12-20T21:08:43.913Z,39.97
2022-12-20T21:11:11.635Z,67.67
2022-12-20T21:13:38.920Z,62.13
2022-12-20T21:16:20.933Z,6.00
2022-12-20T21:18:58.816Z,5.47
2022-12-20T21:21:27.117Z,9.43
2022-12-20T21:23:55.050Z,21.03
2022-12-20T21:26:23.142Z,6.37
2022-12-20T21:28:50.335Z,13.27
2022-12-20T21:31:19.576Z,5.53
2022-12-20T21:33:47.145Z,6.57
2022-12-20T21:36:19.454Z,8.40
2022-12-20T21:38:51.086Z,5.37
2022-12-20T21:41:20.264Z,5.43
2022-12-20T21:43:47.351Z,4.87
2022-12-20T21:46:14.586Z,5.40
2022-12-20T21:48:43.477Z,5.67
2022-12-20T21:51:30.342Z,5.27
2022-12-20T21:54:00.133Z,23.30
2022-12-20T21:56:29.290Z,4.73
2022-12-20T21:58:56.909Z,5.33
2022-12-20T22:01:26.902Z,4.60
2022-12-20T22:03:59.185Z,5.57
2022-12-20T22:06:28.234Z,60.83
2022-12-20T22:08:59.851Z,6.37
2022-12-20T22:11:27.672Z,5.97
2022-12-20T22:13:55.945Z,15.67
2022-12-20T22:16:29.516Z,22.63
2022-12-20T22:18:57.913Z,4.97
2022-12-20T22:21:27.593Z,5.40
2022-12-20T22:23:56.157Z,4.60
2022-12-20T22:26:25.482Z,4.93
2022-12-20T22:28:55.202Z,32.10
2022-12-20T22:31:22.977Z,4.67
2022-12-20T22:33:55.288Z,5.20
2022-12-20T22:36:23.282Z,33.60
2022-12-20T22:38:54.846Z,9.30
2022-12-20T22:41:24.519Z,82.97
2022-12-20T22:43:51.795Z,4.20
2022-12-20T22:49:04.071Z,13.03
2022-12-20T22:51:33.767Z,22.67
2022-12-20T22:54:01.442Z,5.30
2022-12-20T22:56:29.345Z,4.67
2022-12-20T22:58:56.522Z,15.70
2022-12-20T23:01:23.904Z,9.83
2022-12-20T23:03:51.388Z,4.17
2022-12-20T23:06:20.773Z,5.43
2022-12-20T23:08:49.357Z,4.60
2022-12-20T23:11:43.414Z,11.57
2022-12-20T23:14:34.120Z,4.07
2022-12-20T23:17:02.687Z,7.73
2022-12-20T23:19:50.203Z,5.23
2022-12-20T23:22:36.196Z,4.13
2022-12-20T23:25:08.661Z,6.23
2022-12-20T23:27:35.927Z,9.10
2022-12-20T23:30:06.251Z,5.10
2022-12-20T23:32:33.435Z,4.57
2022-12-20T23:35:00.655Z,43.37
2022-12-20T23:37:29.630Z,8.50
2022-12-20T23:39:56.788Z,27.97
2022-12-20T23:42:24.175Z,4.97
2022-12-20T23:44:51.333Z,7.77
2022-12-20T23:47:19.134Z,8.00
2022-12-20T23:49:46.522Z,34.83
2022-12-20T23:52:13.740Z,6.70
2022-12-20T23:54:40.936Z,4.63
2022-12-20T23:57:08.086Z,48.43
2022-12-20T23:59:36.017Z,5.10
